createdAt,value
2018-08-03T00:02:00.540Z,11.93
2018-08-03T00:04:29.967Z,13.00
2018-08-03T00:06:59.244Z,12.90
2018-08-03T00:09:28.700Z,11.70
2018-08-03T00:11:57.989Z,12.40
2018-08-03T00:14:27.256Z,12.87
2018-08-03T00:16:56.582Z,15.03
2018-08-03T00:19:25.855Z,12.23
2018-08-03T00:21:55.194Z,13.40
2018-08-03T00:24:24.563Z,17.73
2018-08-03T00:26:53.829Z,12.93
2018-08-03T00:29:23.119Z,15.70
2018-08-03T00:31:52.392Z,13.33
2018-08-03T00:34:21.679Z,12.60
2018-08-03T00:36:50.944Z,13.03
2018-08-03T00:39:20.273Z,13.67
2018-08-03T00:41:49.570Z,14.20
2018-08-03T00:44:18.978Z,12.10
2018-08-03T00:46:48.277Z,12.80
2018-08-03T00:49:17.685Z,16.67
2018-08-03T00:51:46.948Z,13.60
2018-08-03T00:54:16.248Z,12.10
2018-08-03T00:56:45.593Z,15.37
2018-08-03T00:59:14.873Z,14.93
2018-08-03T01:01:44.216Z,13.30
2018-08-03T01:04:13.542Z,12.40
2018-08-03T01:06:42.811Z,12.43
2018-08-03T01:09:13.401Z,12.93
2018-08-03T01:11:42.716Z,12.83
2018-08-03T01:14:12.145Z,14.53
2018-08-03T01:16:42.451Z,14.33
2018-08-03T01:19:14.682Z,13.93
2018-08-03T01:21:45.140Z,19.03
2018-08-03T01:24:14.466Z,15.63
2018-08-03T01:26:43.726Z,14.83
2018-08-03T01:29:13.016Z,13.87
2018-08-03T01:31:42.309Z,18.03
2018-08-03T01:34:11.590Z,14.00
2018-08-03T01:36:40.939Z,14.23
2018-08-03T01:39:10.242Z,14.40
2018-08-03T01:41:39.491Z,14.47
2018-08-03T01:44:08.856Z,19.83
2018-08-03T01:46:38.129Z,15.37
2018-08-03T01:49:07.469Z,17.10
2018-08-03T01:51:36.768Z,18.70
2018-08-03T01:54:06.119Z,14.20
2018-08-03T01:56:35.428Z,13.70
2018-08-03T01:59:04.725Z,15.47
2018-08-03T02:01:34.121Z,15.87
2018-08-03T02:04:03.413Z,14.00
2018-08-03T02:06:32.703Z,15.77
2018-08-03T02:09:01.973Z,14.33
2018-08-03T02:11:31.256Z,15.60
2018-08-03T02:14:00.663Z,15.60
2018-08-03T02:16:30.010Z,13.27
2018-08-03T02:18:59.273Z,14.47
2018-08-03T02:21:28.605Z,20.30
2018-08-03T02:23:57.919Z,17.23
2018-08-03T02:26:27.300Z,15.83
2018-08-03T02:28:56.572Z,12.03
2018-08-03T02:31:25.905Z,15.57
2018-08-03T02:33:55.176Z,13.13
2018-08-03T02:36:24.467Z,14.00
2018-08-03T02:38:53.774Z,13.73
2018-08-03T02:41:23.052Z,15.67
2018-08-03T02:43:52.555Z,15.30
2018-08-03T02:46:21.835Z,15.23
2018-08-03T02:48:51.136Z,14.70
2018-08-03T02:51:20.442Z,13.63
2018-08-03T02:53:49.701Z,14.83
2018-08-03T02:56:19.109Z,15.97
2018-08-03T02:58:48.453Z,16.87
2018-08-03T03:01:17.756Z,14.13
2018-08-03T03:03:47.039Z,14.00
2018-08-03T03:06:16.330Z,15.53
2018-08-03T03:08:45.703Z,15.93
2018-08-03T03:11:15.004Z,16.93
2018-08-03T03:13:44.275Z,15.40
2018-08-03T03:16:13.580Z,14.87
2018-08-03T03:18:42.877Z,14.63
2018-08-03T03:21:12.176Z,14.67
2018-08-03T03:23:41.569Z,13.40
2018-08-03T03:26:10.885Z,17.33
2018-08-03T03:28:40.196Z,14.53
2018-08-03T03:31:09.485Z,15.83
2018-08-03T03:33:38.825Z,13.80
2018-08-03T03:36:08.141Z,15.73
2018-08-03T03:38:37.440Z,16.00
2018-08-03T03:41:06.721Z,17.90
2018-08-03T03:43:36.000Z,13.83
2018-08-03T03:46:05.549Z,17.47
2018-08-03T03:48:35.944Z,15.43
2018-08-03T03:51:05.399Z,16.90
2018-08-03T03:53:34.665Z,13.80
2018-08-03T03:56:04.000Z,15.33
2018-08-03T03:58:33.290Z,15.07
2018-08-03T04:01:02.576Z,13.80
2018-08-03T04:03:31.959Z,13.97
2018-08-03T04:06:01.224Z,17.10
2018-08-03T04:08:30.586Z,19.53
2018-08-03T04:11:00.032Z,13.73
2018-08-03T04:13:29.276Z,12.97
2018-08-03T04:15:58.601Z,13.63
2018-08-03T04:18:27.872Z,13.60
2018-08-03T04:20:57.236Z,14.20
2018-08-03T04:23:26.512Z,13.23
2018-08-03T04:25:55.806Z,11.67
2018-08-03T04:28:25.238Z,12.63
2018-08-03T04:30:54.524Z,12.20
2018-08-03T04:33:23.838Z,11.17
2018-08-03T04:35:53.242Z,12.20
2018-08-03T04:38:22.514Z,16.10
2018-08-03T04:40:51.846Z,14.00
2018-08-03T04:43:21.133Z,11.60
2018-08-03T04:45:50.514Z,13.87
2018-08-03T04:48:19.776Z,18.10
2018-08-03T04:50:49.064Z,18.33
2018-08-03T04:53:18.360Z,12.27
2018-08-03T04:55:47.670Z,12.90
2018-08-03T04:58:17.112Z,12.40
2018-08-03T05:00:46.477Z,13.17
2018-08-03T05:03:15.996Z,15.70
2018-08-03T05:05:45.339Z,15.03
2018-08-03T05:08:14.631Z,19.83
2018-08-03T05:10:43.973Z,21.70
2018-08-03T05:13:15.185Z,21.30
2018-08-03T05:15:44.739Z,14.80
2018-08-03T05:18:14.032Z,11.20
2018-08-03T05:20:43.329Z,18.43
2018-08-03T05:23:12.884Z,10.60
2018-08-03T05:25:42.193Z,15.67
2018-08-03T05:28:12.117Z,11.50
2018-08-03T05:30:42.385Z,14.37
2018-08-03T05:33:11.648Z,15.20
2018-08-03T05:35:40.942Z,17.97
2018-08-03T05:38:10.389Z,24.73
2018-08-03T05:40:41.074Z,15.00
2018-08-03T05:43:11.965Z,18.13
2018-08-03T05:45:43.019Z,9.13
2018-08-03T05:48:13.945Z,14.37
2018-08-03T05:50:47.807Z,10.47
2018-08-03T05:53:20.100Z,10.27
2018-08-03T05:55:50.950Z,11.00
2018-08-03T05:58:23.601Z,9.50
2018-08-03T06:00:54.441Z,11.03
2018-08-03T06:03:25.562Z,8.90
2018-08-03T06:05:56.623Z,7.87
2018-08-03T06:08:29.744Z,9.53
2018-08-03T06:11:01.497Z,7.20
2018-08-03T06:13:33.843Z,8.67
2018-08-03T06:16:04.841Z,7.80
2018-08-03T06:18:35.937Z,14.90
2018-08-03T06:21:07.935Z,15.03
2018-08-03T06:23:43.803Z,10.83
2018-08-03T06:26:14.638Z,10.00
2018-08-03T06:28:47.365Z,13.00
2018-08-03T06:31:19.521Z,8.27
2018-08-03T06:33:50.428Z,7.10
2018-08-03T06:36:21.500Z,16.77
2018-08-03T06:38:53.644Z,10.07
2018-08-03T06:41:25.230Z,7.20
2018-08-03T06:43:56.800Z,7.30
2018-08-03T06:46:28.682Z,9.77
2018-08-03T06:49:01.917Z,6.90
2018-08-03T06:51:33.964Z,10.20
2018-08-03T06:54:05.106Z,6.63
2018-08-03T06:56:34.566Z,12.23
2018-08-03T06:59:03.892Z,6.67
2018-08-03T07:01:33.173Z,7.80
2018-08-03T07:04:02.656Z,6.43
2018-08-03T07:06:31.964Z,6.93
2018-08-03T07:09:01.364Z,6.37
2018-08-03T07:11:30.757Z,6.50
2018-08-03T07:14:00.116Z,9.83
2018-08-03T07:22:24.658Z,6.20
2018-08-03T07:24:53.710Z,7.17
2018-08-03T07:27:22.879Z,6.07
2018-08-03T07:29:53.045Z,6.63
2018-08-03T07:32:22.065Z,6.43
2018-08-03T07:34:51.026Z,6.57
2018-08-03T07:37:20.173Z,11.10
2018-08-03T07:39:49.242Z,8.17
2018-08-03T07:42:18.246Z,5.50
2018-08-03T07:44:47.516Z,6.20
2018-08-03T07:47:16.577Z,5.33
2018-08-03T07:49:45.596Z,5.70
2018-08-03T07:52:14.635Z,5.73
2018-08-03T07:54:43.630Z,5.60
2018-08-03T07:57:13.416Z,5.40
2018-08-03T07:59:42.519Z,5.73
2018-08-03T08:02:11.544Z,5.20
2018-08-03T08:04:40.582Z,8.77
2018-08-03T08:07:10.573Z,6.30
2018-08-03T08:09:39.700Z,9.70
2018-08-03T08:12:09.352Z,6.10
2018-08-03T08:14:39.193Z,5.67
2018-08-03T08:17:09.096Z,5.17
2018-08-03T08:19:39.726Z,5.50
2018-08-03T08:22:14.948Z,5.00
2018-08-03T08:24:47.345Z,5.30
2018-08-03T08:27:19.321Z,5.90
2018-08-03T08:29:50.896Z,8.47
2018-08-03T08:32:20.677Z,6.57
2018-08-03T08:34:50.621Z,5.83
2018-08-03T08:37:20.482Z,6.10
2018-08-03T08:39:50.376Z,9.63
2018-08-03T08:42:20.167Z,7.37
2018-08-03T08:44:53.492Z,5.10
2018-08-03T08:47:25.461Z,9.07
2018-08-03T08:49:59.664Z,7.60
2018-08-03T08:52:28.689Z,5.90
2018-08-03T08:54:57.630Z,6.53
2018-08-03T08:57:26.694Z,7.10
2018-08-03T08:59:55.672Z,4.97
2018-08-03T09:02:29.940Z,6.60
2018-08-03T09:04:59.689Z,4.83
2018-08-03T09:07:30.582Z,5.40
2018-08-03T09:09:59.843Z,11.00
2018-08-03T09:12:28.993Z,4.70
2018-08-03T09:14:58.210Z,5.20
2018-08-03T09:17:27.765Z,4.70
2018-08-03T09:19:58.089Z,6.73
2018-08-03T09:22:27.441Z,4.50
2018-08-03T09:24:56.458Z,5.47
2018-08-03T09:27:26.619Z,4.80
2018-08-03T09:29:55.711Z,4.17
2018-08-03T09:32:24.779Z,5.27
2018-08-03T09:34:53.869Z,17.83
2018-08-03T09:37:22.850Z,5.53
2018-08-03T09:39:53.015Z,6.67
2018-08-03T09:42:23.015Z,8.10
2018-08-03T09:44:52.217Z,4.40
2018-08-03T09:47:21.359Z,6.27
2018-08-03T09:49:50.383Z,8.43
2018-08-03T09:52:20.663Z,8.60
2018-08-03T09:54:49.818Z,4.30
2018-08-03T09:57:18.866Z,5.27
2018-08-03T09:59:47.880Z,7.23
2018-08-03T10:02:17.082Z,4.20
2018-08-03T10:04:46.091Z,4.90
2018-08-03T10:07:15.870Z,5.77
2018-08-03T10:09:45.017Z,4.17
2018-08-03T10:12:14.064Z,5.80
2018-08-03T10:14:43.088Z,4.77
2018-08-03T10:17:12.067Z,5.27
2018-08-03T10:19:41.178Z,6.23
2018-08-03T10:22:10.222Z,4.73
2018-08-03T10:24:40.529Z,5.17
2018-08-03T10:27:09.899Z,8.20
2018-08-03T10:29:38.964Z,6.20
2018-08-03T10:32:08.635Z,5.13
2018-08-03T10:34:37.632Z,5.73
2018-08-03T10:37:06.624Z,8.33
2018-08-03T10:39:36.918Z,4.63
2018-08-03T10:42:06.462Z,7.40
2018-08-03T10:44:35.602Z,6.73
2018-08-03T10:47:06.323Z,8.73
2018-08-03T10:49:35.707Z,8.67
2018-08-03T10:52:05.125Z,4.43
2018-08-03T10:54:34.355Z,4.80
2018-08-03T10:57:04.434Z,5.20
2018-08-03T10:59:33.509Z,5.00
2018-08-03T11:02:02.875Z,6.93
2018-08-03T11:04:34.008Z,4.30
2018-08-03T11:07:04.883Z,4.60
2018-08-03T11:09:35.195Z,8.53
2018-08-03T11:12:04.824Z,4.97
2018-08-03T11:14:34.244Z,7.70
2018-08-03T11:17:03.498Z,4.50
2018-08-03T11:19:32.640Z,4.47
2018-08-03T11:22:01.628Z,4.80
2018-08-03T11:24:30.774Z,4.83
2018-08-03T11:26:59.782Z,5.40
2018-08-03T11:29:28.819Z,9.13
2018-08-03T11:31:58.254Z,6.13
2018-08-03T11:34:27.319Z,4.57
2018-08-03T11:36:57.300Z,10.40
2018-08-03T11:39:26.380Z,9.30
2018-08-03T11:41:55.756Z,9.83
2018-08-03T11:44:25.817Z,4.80
2018-08-03T11:46:55.052Z,4.70
2018-08-03T11:49:24.112Z,5.13
2018-08-03T11:51:53.124Z,6.50
2018-08-03T11:54:22.170Z,5.00
2018-08-03T11:56:51.375Z,9.50
2018-08-03T11:59:20.380Z,6.50
2018-08-03T12:01:49.846Z,12.23
2018-08-03T12:04:18.954Z,7.53
2018-08-03T12:06:48.197Z,8.07
2018-08-03T12:09:17.290Z,5.60
2018-08-03T12:11:46.387Z,5.47
2018-08-03T12:14:15.581Z,5.50
2018-08-03T12:16:44.847Z,10.80
2018-08-03T12:19:13.983Z,6.90
2018-08-03T12:21:43.195Z,6.53
2018-08-03T12:24:12.311Z,7.20
2018-08-03T12:26:41.411Z,10.70
2018-08-03T12:29:10.439Z,5.90
2018-08-03T12:31:39.605Z,9.93
2018-08-03T12:34:08.647Z,5.17
2018-08-03T12:36:37.730Z,5.10
2018-08-03T12:39:08.799Z,5.03
2018-08-03T12:41:38.714Z,5.10
2018-08-03T12:44:07.951Z,9.70
2018-08-03T12:46:37.229Z,6.90
2018-08-03T12:49:06.377Z,8.00
2018-08-03T12:51:35.597Z,7.67
2018-08-03T12:54:04.588Z,5.37
2018-08-03T12:56:34.655Z,7.27
2018-08-03T12:59:03.660Z,5.73
2018-08-03T13:01:32.804Z,6.97
2018-08-03T13:04:01.887Z,5.70
2018-08-03T13:06:30.956Z,6.40
2018-08-03T13:08:59.974Z,8.67
2018-08-03T13:11:29.149Z,6.63
2018-08-03T13:13:58.177Z,5.80
2018-08-03T13:16:27.226Z,5.40
2018-08-03T13:18:56.272Z,5.40
2018-08-03T13:21:32.480Z,5.30
2018-08-03T13:24:02.211Z,7.00
2018-08-03T13:26:31.522Z,8.50
2018-08-03T13:29:00.775Z,7.53
2018-08-03T13:31:30.397Z,7.00
2018-08-03T13:33:59.962Z,10.10
2018-08-03T13:36:30.174Z,5.53
2018-08-03T13:38:59.345Z,6.00
2018-08-03T13:41:28.370Z,5.07
2018-08-03T13:43:57.695Z,8.40
2018-08-03T13:46:26.711Z,5.63
2018-08-03T13:48:55.819Z,5.50
2018-08-03T13:51:25.035Z,5.23
2018-08-03T13:53:54.098Z,6.57
2018-08-03T13:56:23.189Z,10.00
2018-08-03T13:58:52.203Z,5.47
2018-08-03T14:01:32.510Z,6.57
2018-08-03T14:12:30.910Z,7.27
2018-08-03T14:24:17.556Z,5.23
2018-08-03T14:27:36.283Z,13.33
2018-08-03T14:30:18.128Z,8.90
2018-08-03T14:32:59.806Z,13.07
2018-08-03T14:37:41.388Z,7.63
2018-08-03T14:44:07.934Z,5.83
2018-08-03T14:46:55.749Z,4.90
2018-08-03T14:49:36.708Z,6.23
2018-08-03T14:55:51.456Z,5.27
2018-08-03T14:58:42.014Z,10.53
2018-08-03T15:01:37.647Z,7.53
2018-08-03T15:04:21.120Z,5.23
2018-08-03T15:07:31.541Z,5.60
2018-08-03T15:10:19.614Z,7.13
2018-08-03T15:13:12.490Z,8.10
2018-08-03T15:15:51.836Z,6.57
2018-08-03T15:19:00.156Z,5.30
2018-08-03T15:21:39.531Z,6.63
2018-08-03T15:24:12.618Z,6.50
2018-08-03T15:26:41.928Z,5.63
2018-08-03T15:29:13.170Z,7.97
2018-08-03T15:31:46.263Z,7.30
2018-08-03T15:34:16.484Z,5.23
2018-08-03T15:36:45.724Z,8.43
2018-08-03T15:39:14.808Z,5.90
2018-08-03T15:41:44.826Z,5.37
2018-08-03T15:44:20.723Z,5.30
2018-08-03T15:46:50.828Z,9.27
2018-08-03T15:49:19.923Z,5.50
2018-08-03T15:51:49.044Z,5.67
2018-08-03T15:54:18.158Z,8.90
2018-08-03T16:02:22.754Z,10.67
2018-08-03T16:04:59.412Z,6.27
2018-08-03T16:10:46.047Z,4.93
2018-08-03T16:13:34.902Z,4.60
2018-08-03T16:16:31.832Z,4.67
2018-08-03T16:19:05.035Z,9.30
2018-08-03T16:21:38.779Z,10.47
2018-08-03T16:24:22.199Z,7.13
2018-08-03T16:26:52.441Z,6.23
2018-08-03T16:29:25.134Z,6.43
2018-08-03T16:36:23.491Z,20.63
2018-08-03T16:44:11.465Z,5.83
2018-08-03T16:46:40.568Z,4.83
2018-08-03T16:49:09.649Z,5.07
2018-08-03T16:51:38.771Z,5.13
2018-08-03T16:54:07.896Z,12.00
2018-08-03T16:56:37.121Z,4.93
2018-08-03T16:59:07.146Z,5.00
2018-08-03T17:01:37.038Z,5.17
2018-08-03T17:04:06.144Z,4.60
2018-08-03T17:06:35.176Z,5.20
2018-08-03T17:09:06.364Z,9.80
2018-08-03T17:11:35.333Z,6.47
2018-08-03T17:14:04.400Z,8.00
2018-08-03T17:16:33.390Z,4.73
2018-08-03T17:19:02.356Z,5.33
2018-08-03T17:21:31.396Z,6.83
2018-08-03T17:24:00.476Z,4.73
2018-08-03T17:26:29.574Z,5.90
2018-08-03T17:28:58.660Z,4.67
2018-08-03T17:31:27.657Z,6.33
2018-08-03T17:33:56.770Z,4.13
2018-08-03T17:36:25.795Z,6.57
2018-08-03T17:38:54.921Z,5.13
2018-08-03T17:41:23.939Z,6.83
2018-08-03T17:43:52.977Z,8.63
2018-08-03T17:46:22.202Z,5.93
2018-08-03T17:48:51.254Z,5.23
2018-08-03T17:51:20.329Z,5.13
2018-08-03T17:53:49.724Z,4.43
2018-08-03T17:56:18.743Z,5.40
2018-08-03T17:58:47.763Z,4.70
2018-08-03T18:01:16.846Z,4.80
2018-08-03T18:03:45.907Z,4.87
2018-08-03T18:06:14.955Z,8.30
2018-08-03T18:08:44.158Z,7.73
2018-08-03T18:11:13.148Z,4.87
2018-08-03T18:13:42.215Z,4.60
2018-08-03T18:16:11.385Z,7.23
2018-08-03T18:18:40.370Z,9.63
2018-08-03T18:21:09.484Z,4.63
2018-08-03T18:23:38.497Z,5.30
2018-08-03T18:26:07.554Z,6.73
2018-08-03T18:28:36.565Z,5.53
2018-08-03T18:31:05.624Z,6.23
2018-08-03T18:33:34.659Z,13.63
2018-08-03T18:36:03.816Z,4.53
2018-08-03T18:38:32.962Z,6.73
2018-08-03T18:41:01.929Z,5.47
2018-08-03T18:43:30.979Z,11.43
2018-08-03T18:46:00.011Z,24.27
2018-08-03T18:48:29.077Z,35.17
2018-08-03T18:50:58.233Z,37.13
2018-08-03T18:53:27.215Z,19.53
2018-08-03T18:55:56.385Z,29.83
2018-08-03T18:58:25.381Z,10.47
2018-08-03T19:00:54.522Z,13.20
2018-08-03T19:03:23.599Z,9.87
2018-08-03T19:05:52.719Z,16.73
2018-08-03T19:08:21.750Z,11.80
2018-08-03T19:10:50.762Z,15.13
2018-08-03T19:13:20.290Z,13.30
2018-08-03T19:15:49.348Z,9.77
2018-08-03T19:18:18.355Z,14.93
2018-08-03T19:20:47.523Z,7.83
2018-08-03T19:23:16.523Z,8.63
2018-08-03T19:25:45.623Z,11.30
2018-08-03T19:28:14.638Z,11.70
2018-08-03T19:30:43.634Z,11.00
2018-08-03T19:33:12.735Z,10.73
2018-08-03T19:35:41.713Z,11.60
2018-08-03T19:38:10.810Z,11.20
2018-08-03T19:40:39.808Z,16.53
2018-08-03T19:43:08.807Z,15.40
2018-08-03T19:45:39.075Z,18.37
2018-08-03T19:48:08.974Z,8.63
2018-08-03T19:50:38.566Z,7.80
2018-08-03T19:53:08.375Z,12.23
2018-08-03T19:55:37.439Z,11.03
2018-08-03T19:58:06.449Z,10.20
2018-08-03T20:00:35.451Z,10.90
2018-08-03T20:03:04.514Z,12.63
2018-08-03T20:05:33.447Z,11.53
2018-08-03T20:08:02.455Z,12.20
2018-08-03T20:10:31.450Z,7.20
2018-08-03T20:13:00.395Z,10.90
2018-08-03T20:15:29.328Z,6.57
2018-08-03T20:17:58.308Z,8.20
2018-08-03T20:20:27.275Z,11.97
2018-08-03T20:22:56.227Z,8.27
2018-08-03T20:25:25.197Z,10.10
2018-08-03T20:27:54.172Z,11.63
2018-08-03T20:30:23.322Z,6.67
2018-08-03T20:32:52.377Z,16.20
2018-08-03T20:35:21.396Z,6.60
2018-08-03T20:37:50.366Z,14.90
2018-08-03T20:40:19.330Z,13.23
2018-08-03T20:42:48.294Z,10.73
2018-08-03T20:45:17.266Z,8.03
2018-08-03T20:47:46.300Z,13.07
2018-08-03T20:50:15.308Z,10.37
2018-08-03T20:52:44.274Z,11.63
2018-08-03T20:55:13.306Z,7.63
2018-08-03T20:57:42.239Z,7.20
2018-08-03T21:00:11.232Z,10.30
2018-08-03T21:02:40.171Z,9.13
2018-08-03T21:05:09.190Z,6.30
2018-08-03T21:07:38.191Z,9.40
2018-08-03T21:10:07.317Z,8.27
2018-08-03T21:12:36.438Z,9.13
2018-08-03T21:15:06.807Z,8.50
2018-08-03T21:17:35.769Z,8.43
2018-08-03T21:20:05.079Z,7.30
2018-08-03T21:22:34.082Z,10.83
2018-08-03T21:25:03.110Z,7.77
2018-08-03T21:27:32.104Z,7.97
2018-08-03T21:30:01.064Z,20.90
2018-08-03T21:32:30.066Z,7.43
2018-08-03T21:34:59.138Z,8.70
2018-08-03T21:37:28.154Z,9.07
2018-08-03T21:39:57.110Z,17.00
2018-08-03T21:42:26.110Z,7.27
2018-08-03T21:44:55.123Z,7.60
2018-08-03T21:47:24.125Z,8.27
2018-08-03T21:49:53.282Z,9.43
2018-08-03T21:52:22.333Z,13.27
2018-08-03T21:54:51.376Z,8.40
2018-08-03T21:57:20.403Z,15.33
2018-08-03T21:59:49.378Z,8.80
2018-08-03T22:02:18.378Z,9.13
2018-08-03T22:04:47.351Z,8.10
2018-08-03T22:07:16.364Z,7.73
2018-08-03T22:09:45.383Z,8.50
2018-08-03T22:12:14.433Z,7.70
2018-08-03T22:14:43.390Z,8.07
2018-08-03T22:17:12.451Z,11.60
2018-08-03T22:19:41.444Z,11.73
2018-08-03T22:22:10.471Z,8.40
2018-08-03T22:24:39.629Z,8.00
2018-08-03T22:27:08.591Z,7.80
2018-08-03T22:29:37.674Z,8.40
2018-08-03T22:32:06.740Z,7.83
2018-08-03T22:34:35.722Z,8.30
2018-08-03T22:37:04.735Z,9.53
2018-08-03T22:39:33.764Z,10.60
2018-08-03T22:42:02.739Z,8.97
2018-08-03T22:44:31.734Z,7.30
2018-08-03T22:47:00.723Z,10.33
2018-08-03T22:49:29.720Z,7.47
2018-08-03T22:51:58.696Z,8.20
2018-08-03T22:54:27.705Z,8.87
2018-08-03T22:56:56.670Z,8.27
2018-08-03T22:59:25.655Z,13.63
2018-08-03T23:01:54.636Z,8.17
2018-08-03T23:04:23.703Z,9.40
2018-08-03T23:06:54.574Z,9.90
2018-08-03T23:09:24.904Z,7.40
2018-08-03T23:11:55.133Z,9.37
2018-08-03T23:14:26.418Z,9.83
2018-08-03T23:16:56.060Z,11.53
2018-08-03T23:19:26.364Z,9.03
2018-08-03T23:21:56.412Z,10.13
2018-08-03T23:24:26.147Z,8.10
2018-08-03T23:26:56.239Z,7.80
2018-08-03T23:29:25.885Z,8.00
2018-08-03T23:31:56.088Z,7.77
2018-08-03T23:34:26.006Z,16.23
2018-08-03T23:36:55.874Z,9.90
2018-08-03T23:39:26.020Z,8.47
2018-08-03T23:41:56.267Z,11.40
2018-08-03T23:44:27.794Z,7.10
2018-08-03T23:46:57.822Z,8.47
2018-08-03T23:49:28.649Z,7.63
2018-08-03T23:51:58.449Z,9.20
2018-08-03T23:54:28.294Z,7.40
2018-08-03T23:56:58.357Z,8.27
2018-08-03T23:59:28.608Z,8.80
